sensor_id;sensor_type;location;lat;lon;timestamp;temperature;humidity
25154;DHT22;47555;51.038;6.280;2022-12-29T00:02:08;11.40;99.90
25154;DHT22;47555;51.038;6.280;2022-12-29T00:04:34;11.50;99.90
25154;DHT22;47555;51.038;6.280;2022-12-29T00:07:00;11.50;99.90
25154;DHT22;47555;51.038;6.280;2022-12-29T00:09:26;11.50;99.90
25154;DHT22;47555;51.038;6.280;2022-12-29T00:11:51;11.50;99.90
25154;DHT22;47555;51.038;6.280;2022-12-29T00:14:17;11.60;99.90
25154;DHT22;47555;51.038;6.280;2022-12-29T00:17:02;11.60;99.90
25154;DHT22;47555;51.038;6.280;2022-12-29T00:19:28;11.60;99.90
25154;DHT22;47555;51.038;6.280;2022-12-29T00:22:13;11.60;99.90
25154;DHT22;47555;51.038;6.280;2022-12-29T00:24:57;11.70;99.90
25154;DHT22;47555;51.038;6.280;2022-12-29T00:27:42;11.70;99.90
25154;DHT22;47555;51.038;6.280;2022-12-29T00:30:26;11.70;99.90
25154;DHT22;47555;51.038;6.280;2022-12-29T00:33:15;11.70;99.90
25154;DHT22;47555;51.038;6.280;2022-12-29T00:36:19;11.80;99.90
25154;DHT22;47555;51.038;6.280;2022-12-29T00:38:57;11.80;99.90
25154;DHT22;47555;51.038;6.280;2022-12-29T00:41:43;11.80;99.90
25154;DHT22;47555;51.038;6.280;2022-12-29T00:44:27;11.80;99.90
25154;DHT22;47555;51.038;6.280;2022-12-29T00:46:52;11.80;99.90
25154;DHT22;47555;51.038;6.280;2022-12-29T00:49:18;11.80;99.90
25154;DHT22;47555;51.038;6.280;2022-12-29T00:51:58;11.90;99.90
25154;DHT22;47555;51.038;6.280;2022-12-29T00:54:24;11.90;99.90
25154;DHT22;47555;51.038;6.280;2022-12-29T00:56:51;11.90;99.90
25154;DHT22;47555;51.038;6.280;2022-12-29T00:59:17;11.80;99.90
25154;DHT22;47555;51.038;6.280;2022-12-29T01:01:44;11.80;99.90
25154;DHT22;47555;51.038;6.280;2022-12-29T01:04:10;11.80;99.90
25154;DHT22;47555;51.038;6.280;2022-12-29T01:06:38;11.80;99.90
25154;DHT22;47555;51.038;6.280;2022-12-29T01:09:04;11.90;99.90
25154;DHT22;47555;51.038;6.280;2022-12-29T01:11:49;11.80;99.90
25154;DHT22;47555;51.038;6.280;2022-12-29T01:14:15;11.80;99.90
25154;DHT22;47555;51.038;6.280;2022-12-29T01:16:40;11.80;99.90
25154;DHT22;47555;51.038;6.280;2022-12-29T01:19:06;11.80;99.90
25154;DHT22;47555;51.038;6.280;2022-12-29T01:21:32;11.80;99.90
25154;DHT22;47555;51.038;6.280;2022-12-29T01:23:58;11.80;99.90
25154;DHT22;47555;51.038;6.280;2022-12-29T01:26:23;11.80;99.90
25154;DHT22;47555;51.038;6.280;2022-12-29T01:28:49;11.80;99.90
25154;DHT22;47555;51.038;6.280;2022-12-29T01:31:15;11.70;99.90
25154;DHT22;47555;51.038;6.280;2022-12-29T01:33:41;11.70;99.90
25154;DHT22;47555;51.038;6.280;2022-12-29T01:36:10;11.70;99.70
25154;DHT22;47555;51.038;6.280;2022-12-29T01:38:36;11.70;99.80
25154;DHT22;47555;51.038;6.280;2022-12-29T01:41:03;11.70;99.60
25154;DHT22;47555;51.038;6.280;2022-12-29T01:43:49;11.70;99.10
25154;DHT22;47555;51.038;6.280;2022-12-29T01:51:28;11.70;98.50
25154;DHT22;47555;51.038;6.280;2022-12-29T01:53:57;11.70;98.00
25154;DHT22;47555;51.038;6.280;2022-12-29T01:56:24;11.70;97.90
25154;DHT22;47555;51.038;6.280;2022-12-29T01:58:56;11.70;98.00
25154;DHT22;47555;51.038;6.280;2022-12-29T02:01:24;11.60;97.40
25154;DHT22;47555;51.038;6.280;2022-12-29T02:03:51;11.70;96.80
25154;DHT22;47555;51.038;6.280;2022-12-29T02:06:24;11.70;96.50
25154;DHT22;47555;51.038;6.280;2022-12-29T02:08:53;11.70;95.90
25154;DHT22;47555;51.038;6.280;2022-12-29T02:11:23;11.70;95.10
25154;DHT22;47555;51.038;6.280;2022-12-29T02:13:49;11.70;95.30
25154;DHT22;47555;51.038;6.280;2022-12-29T02:16:46;11.70;95.20
25154;DHT22;47555;51.038;6.280;2022-12-29T02:19:34;11.80;95.00
25154;DHT22;47555;51.038;6.280;2022-12-29T02:24:58;11.80;95.10
25154;DHT22;47555;51.038;6.280;2022-12-29T02:30:03;11.80;95.50
25154;DHT22;47555;51.038;6.280;2022-12-29T02:32:45;11.80;95.70
25154;DHT22;47555;51.038;6.280;2022-12-29T02:35:41;11.80;95.80
25154;DHT22;47555;51.038;6.280;2022-12-29T02:38:38;11.80;95.50
25154;DHT22;47555;51.038;6.280;2022-12-29T02:41:31;11.90;96.00
25154;DHT22;47555;51.038;6.280;2022-12-29T02:46:51;11.80;98.20
25154;DHT22;47555;51.038;6.280;2022-12-29T02:49:22;11.80;99.50
25154;DHT22;47555;51.038;6.280;2022-12-29T02:52:08;11.70;99.90
25154;DHT22;47555;51.038;6.280;2022-12-29T02:54:36;11.70;99.80
25154;DHT22;47555;51.038;6.280;2022-12-29T03:00:20;11.60;99.90
25154;DHT22;47555;51.038;6.280;2022-12-29T03:08:31;11.70;99.90
25154;DHT22;47555;51.038;6.280;2022-12-29T03:11:06;11.60;99.90
25154;DHT22;47555;51.038;6.280;2022-12-29T03:14:01;11.70;99.90
25154;DHT22;47555;51.038;6.280;2022-12-29T03:16:56;11.60;99.90
25154;DHT22;47555;51.038;6.280;2022-12-29T03:19:28;11.70;99.90
25154;DHT22;47555;51.038;6.280;2022-12-29T03:21:56;11.60;99.90
25154;DHT22;47555;51.038;6.280;2022-12-29T03:24:47;11.60;99.90
25154;DHT22;47555;51.038;6.280;2022-12-29T03:27:18;11.60;99.90
25154;DHT22;47555;51.038;6.280;2022-12-29T03:29:50;11.60;99.90
25154;DHT22;47555;51.038;6.280;2022-12-29T03:32:24;11.70;99.90
25154;DHT22;47555;51.038;6.280;2022-12-29T03:34:51;11.70;99.40
25154;DHT22;47555;51.038;6.280;2022-12-29T03:37:22;11.80;99.30
25154;DHT22;47555;51.038;6.280;2022-12-29T03:39:49;11.80;99.20
25154;DHT22;47555;51.038;6.280;2022-12-29T03:42:19;11.80;99.10
25154;DHT22;47555;51.038;6.280;2022-12-29T03:44:45;11.90;98.70
25154;DHT22;47555;51.038;6.280;2022-12-29T03:47:12;11.90;98.40
25154;DHT22;47555;51.038;6.280;2022-12-29T03:49:38;11.90;98.00
25154;DHT22;47555;51.038;6.280;2022-12-29T03:52:04;11.90;98.10
25154;DHT22;47555;51.038;6.280;2022-12-29T03:54:30;11.80;98.40
25154;DHT22;47555;51.038;6.280;2022-12-29T03:56:56;11.80;98.20
25154;DHT22;47555;51.038;6.280;2022-12-29T03:59:21;11.80;98.20
25154;DHT22;47555;51.038;6.280;2022-12-29T04:01:47;11.80;98.10
25154;DHT22;47555;51.038;6.280;2022-12-29T04:04:12;11.80;98.00
25154;DHT22;47555;51.038;6.280;2022-12-29T04:06:38;11.80;97.70
25154;DHT22;47555;51.038;6.280;2022-12-29T04:09:04;11.80;97.20
25154;DHT22;47555;51.038;6.280;2022-12-29T04:11:29;11.80;97.10
25154;DHT22;47555;51.038;6.280;2022-12-29T04:13:55;11.80;96.70
25154;DHT22;47555;51.038;6.280;2022-12-29T04:16:20;11.90;96.20
25154;DHT22;47555;51.038;6.280;2022-12-29T04:18:46;11.90;96.10
25154;DHT22;47555;51.038;6.280;2022-12-29T04:21:11;12.00;95.50
25154;DHT22;47555;51.038;6.280;2022-12-29T04:23:38;12.00;95.20
25154;DHT22;47555;51.038;6.280;2022-12-29T04:26:05;12.00;94.60
25154;DHT22;47555;51.038;6.280;2022-12-29T04:28:32;12.00;94.40
25154;DHT22;47555;51.038;6.280;2022-12-29T04:30:58;12.00;94.20
25154;DHT22;47555;51.038;6.280;2022-12-29T04:33:24;11.90;94.50
25154;DHT22;47555;51.038;6.280;2022-12-29T04:35:50;11.90;94.00
25154;DHT22;47555;51.038;6.280;2022-12-29T04:38:18;12.00;93.00
25154;DHT22;47555;51.038;6.280;2022-12-29T04:40:44;12.00;93.10
25154;DHT22;47555;51.038;6.280;2022-12-29T04:43:10;12.00;93.20
25154;DHT22;47555;51.038;6.280;2022-12-29T04:45:36;12.00;93.00
25154;DHT22;47555;51.038;6.280;2022-12-29T04:48:01;12.00;93.10
25154;DHT22;47555;51.038;6.280;2022-12-29T04:50:27;12.00;92.70
25154;DHT22;47555;51.038;6.280;2022-12-29T04:52:52;12.10;92.70
25154;DHT22;47555;51.038;6.280;2022-12-29T04:55:18;12.10;92.60
25154;DHT22;47555;51.038;6.280;2022-12-29T04:57:43;12.00;92.30
25154;DHT22;47555;51.038;6.280;2022-12-29T05:00:09;12.10;92.20
25154;DHT22;47555;51.038;6.280;2022-12-29T05:02:36;12.10;92.00
25154;DHT22;47555;51.038;6.280;2022-12-29T05:05:03;12.10;92.40
25154;DHT22;47555;51.038;6.280;2022-12-29T05:07:28;12.10;91.90
25154;DHT22;47555;51.038;6.280;2022-12-29T05:09:54;12.10;91.90
25154;DHT22;47555;51.038;6.280;2022-12-29T05:12:19;12.10;91.40
25154;DHT22;47555;51.038;6.280;2022-12-29T05:14:45;12.20;91.50
25154;DHT22;47555;51.038;6.280;2022-12-29T05:17:10;12.10;91.10
25154;DHT22;47555;51.038;6.280;2022-12-29T05:19:36;12.10;90.90
25154;DHT22;47555;51.038;6.280;2022-12-29T05:22:01;12.10;90.50
25154;DHT22;47555;51.038;6.280;2022-12-29T05:24:27;12.10;90.70
25154;DHT22;47555;51.038;6.280;2022-12-29T05:26:52;12.00;90.70
25154;DHT22;47555;51.038;6.280;2022-12-29T05:29:18;12.00;90.80
25154;DHT22;47555;51.038;6.280;2022-12-29T05:31:43;12.00;90.30
25154;DHT22;47555;51.038;6.280;2022-12-29T05:34:11;12.00;90.60
25154;DHT22;47555;51.038;6.280;2022-12-29T05:36:37;11.90;90.40
25154;DHT22;47555;51.038;6.280;2022-12-29T05:39:02;11.90;90.70
25154;DHT22;47555;51.038;6.280;2022-12-29T05:41:28;11.80;90.70
25154;DHT22;47555;51.038;6.280;2022-12-29T05:43:54;11.90;90.60
25154;DHT22;47555;51.038;6.280;2022-12-29T05:46:19;11.80;90.60
25154;DHT22;47555;51.038;6.280;2022-12-29T05:48:45;11.80;89.80
25154;DHT22;47555;51.038;6.280;2022-12-29T05:51:10;11.70;90.30
25154;DHT22;47555;51.038;6.280;2022-12-29T05:53:39;11.70;90.20
25154;DHT22;47555;51.038;6.280;2022-12-29T05:56:04;11.70;89.80
25154;DHT22;47555;51.038;6.280;2022-12-29T05:58:30;11.70;89.60
25154;DHT22;47555;51.038;6.280;2022-12-29T06:00:56;11.70;89.80
25154;DHT22;47555;51.038;6.280;2022-12-29T06:03:21;11.70;89.30
25154;DHT22;47555;51.038;6.280;2022-12-29T06:05:47;11.60;89.40
25154;DHT22;47555;51.038;6.280;2022-12-29T06:08:13;11.60;89.10
25154;DHT22;47555;51.038;6.280;2022-12-29T06:10:38;11.60;88.90
25154;DHT22;47555;51.038;6.280;2022-12-29T06:13:04;11.50;89.10
25154;DHT22;47555;51.038;6.280;2022-12-29T06:15:31;11.50;89.70
25154;DHT22;47555;51.038;6.280;2022-12-29T06:17:57;11.60;89.80
25154;DHT22;47555;51.038;6.280;2022-12-29T06:20:23;11.40;89.60
25154;DHT22;47555;51.038;6.280;2022-12-29T06:22:48;11.50;89.90
25154;DHT22;47555;51.038;6.280;2022-12-29T06:25:15;11.50;89.70
25154;DHT22;47555;51.038;6.280;2022-12-29T06:27:41;11.50;89.90
25154;DHT22;47555;51.038;6.280;2022-12-29T06:30:07;11.50;89.20
25154;DHT22;47555;51.038;6.280;2022-12-29T06:32:34;11.50;89.40
25154;DHT22;47555;51.038;6.280;2022-12-29T06:34:59;11.50;89.50
25154;DHT22;47555;51.038;6.280;2022-12-29T06:37:25;11.50;89.40
25154;DHT22;47555;51.038;6.280;2022-12-29T06:39:51;11.40;89.30
25154;DHT22;47555;51.038;6.280;2022-12-29T06:42:16;11.50;89.80
25154;DHT22;47555;51.038;6.280;2022-12-29T06:44:42;11.50;89.90
25154;DHT22;47555;51.038;6.280;2022-12-29T06:47:08;11.50;89.90
25154;DHT22;47555;51.038;6.280;2022-12-29T06:49:33;11.60;89.80
25154;DHT22;47555;51.038;6.280;2022-12-29T06:51:59;11.50;89.80
25154;DHT22;47555;51.038;6.280;2022-12-29T06:54:26;11.50;89.80
25154;DHT22;47555;51.038;6.280;2022-12-29T06:56:51;11.50;89.30
25154;DHT22;47555;51.038;6.280;2022-12-29T06:59:17;11.50;89.50
25154;DHT22;47555;51.038;6.280;2022-12-29T07:01:42;11.50;89.80
25154;DHT22;47555;51.038;6.280;2022-12-29T07:04:08;11.50;89.90
25154;DHT22;47555;51.038;6.280;2022-12-29T07:06:33;11.50;88.70
25154;DHT22;47555;51.038;6.280;2022-12-29T07:08:59;11.50;89.00
25154;DHT22;47555;51.038;6.280;2022-12-29T07:11:25;11.40;88.40
25154;DHT22;47555;51.038;6.280;2022-12-29T07:13:50;11.40;87.90
25154;DHT22;47555;51.038;6.280;2022-12-29T07:16:16;11.40;87.70
25154;DHT22;47555;51.038;6.280;2022-12-29T07:18:41;11.40;88.20
25154;DHT22;47555;51.038;6.280;2022-12-29T07:21:07;11.40;88.40
25154;DHT22;47555;51.038;6.280;2022-12-29T07:23:33;11.40;88.50
25154;DHT22;47555;51.038;6.280;2022-12-29T07:26:06;11.30;87.60
25154;DHT22;47555;51.038;6.280;2022-12-29T07:28:34;11.20;88.10
25154;DHT22;47555;51.038;6.280;2022-12-29T07:31:00;11.20;88.10
25154;DHT22;47555;51.038;6.280;2022-12-29T07:33:28;11.20;88.70
25154;DHT22;47555;51.038;6.280;2022-12-29T07:35:54;11.20;89.10
25154;DHT22;47555;51.038;6.280;2022-12-29T07:38:20;11.20;89.00
25154;DHT22;47555;51.038;6.280;2022-12-29T07:40:45;11.20;89.10
25154;DHT22;47555;51.038;6.280;2022-12-29T07:43:11;11.20;88.70
25154;DHT22;47555;51.038;6.280;2022-12-29T07:45:37;11.20;88.20
25154;DHT22;47555;51.038;6.280;2022-12-29T07:48:03;11.20;88.00
25154;DHT22;47555;51.038;6.280;2022-12-29T07:50:29;11.20;87.90
25154;DHT22;47555;51.038;6.280;2022-12-29T07:52:54;11.20;88.00
25154;DHT22;47555;51.038;6.280;2022-12-29T07:55:20;11.20;88.00
25154;DHT22;47555;51.038;6.280;2022-12-29T07:57:45;11.20;88.00
25154;DHT22;47555;51.038;6.280;2022-12-29T08:00:11;11.20;87.40
25154;DHT22;47555;51.038;6.280;2022-12-29T08:02:37;11.20;87.20
25154;DHT22;47555;51.038;6.280;2022-12-29T08:05:03;11.20;88.10
25154;DHT22;47555;51.038;6.280;2022-12-29T08:07:28;11.30;89.00
25154;DHT22;47555;51.038;6.280;2022-12-29T08:09:54;11.20;88.50
25154;DHT22;47555;51.038;6.280;2022-12-29T08:12:20;11.20;91.30
25154;DHT22;47555;51.038;6.280;2022-12-29T08:14:45;11.20;92.70
25154;DHT22;47555;51.038;6.280;2022-12-29T08:17:11;11.00;97.30
25154;DHT22;47555;51.038;6.280;2022-12-29T08:19:37;10.80;98.80
25154;DHT22;47555;51.038;6.280;2022-12-29T08:22:02;10.60;96.50
25154;DHT22;47555;51.038;6.280;2022-12-29T08:24:28;10.60;96.90
25154;DHT22;47555;51.038;6.280;2022-12-29T08:26:54;10.50;97.30
25154;DHT22;47555;51.038;6.280;2022-12-29T08:29:20;10.50;97.10
25154;DHT22;47555;51.038;6.280;2022-12-29T08:31:47;10.50;96.20
25154;DHT22;47555;51.038;6.280;2022-12-29T08:34:12;10.60;94.50
25154;DHT22;47555;51.038;6.280;2022-12-29T08:36:38;10.60;94.10
25154;DHT22;47555;51.038;6.280;2022-12-29T08:39:03;10.60;93.90
25154;DHT22;47555;51.038;6.280;2022-12-29T08:41:29;10.70;92.70
25154;DHT22;47555;51.038;6.280;2022-12-29T08:43:54;10.80;92.20
25154;DHT22;47555;51.038;6.280;2022-12-29T08:46:20;10.80;92.50
25154;DHT22;47555;51.038;6.280;2022-12-29T08:48:46;10.80;91.30
25154;DHT22;47555;51.038;6.280;2022-12-29T08:51:11;10.80;91.50
25154;DHT22;47555;51.038;6.280;2022-12-29T08:53:37;11.00;90.40
25154;DHT22;47555;51.038;6.280;2022-12-29T08:56:03;11.10;89.90
25154;DHT22;47555;51.038;6.280;2022-12-29T08:58:29;11.20;89.70
25154;DHT22;47555;51.038;6.280;2022-12-29T09:00:56;11.30;88.80
25154;DHT22;47555;51.038;6.280;2022-12-29T09:03:27;11.30;90.00
25154;DHT22;47555;51.038;6.280;2022-12-29T09:05:54;11.50;88.60
25154;DHT22;47555;51.038;6.280;2022-12-29T09:08:20;11.70;85.40
25154;DHT22;47555;51.038;6.280;2022-12-29T09:10:46;11.90;84.30
25154;DHT22;47555;51.038;6.280;2022-12-29T09:13:13;12.00;82.40
25154;DHT22;47555;51.038;6.280;2022-12-29T09:15:39;12.30;81.40
25154;DHT22;47555;51.038;6.280;2022-12-29T09:18:06;12.40;77.90
25154;DHT22;47555;51.038;6.280;2022-12-29T09:20:32;12.50;78.50
25154;DHT22;47555;51.038;6.280;2022-12-29T09:22:57;12.80;76.00
25154;DHT22;47555;51.038;6.280;2022-12-29T09:25:24;12.90;71.40
25154;DHT22;47555;51.038;6.280;2022-12-29T09:27:50;13.10;67.00
25154;DHT22;47555;51.038;6.280;2022-12-29T09:30:19;13.10;68.40
25154;DHT22;47555;51.038;6.280;2022-12-29T09:32:45;13.20;67.60
25154;DHT22;47555;51.038;6.280;2022-12-29T09:35:12;13.10;64.70
25154;DHT22;47555;51.038;6.280;2022-12-29T09:37:37;13.00;65.40
25154;DHT22;47555;51.038;6.280;2022-12-29T09:40:04;12.80;65.80
25154;DHT22;47555;51.038;6.280;2022-12-29T09:42:38;12.80;64.10
25154;DHT22;47555;51.038;6.280;2022-12-29T09:45:14;12.80;62.30
25154;DHT22;47555;51.038;6.280;2022-12-29T09:47:41;12.70;62.90
25154;DHT22;47555;51.038;6.280;2022-12-29T09:52:48;12.70;62.50
25154;DHT22;47555;51.038;6.280;2022-12-29T09:55:22;13.00;61.80
25154;DHT22;47555;51.038;6.280;2022-12-29T09:57:57;13.00;61.60
25154;DHT22;47555;51.038;6.280;2022-12-29T10:03:17;12.60;63.90
25154;DHT22;47555;51.038;6.280;2022-12-29T10:05:50;12.40;66.00
25154;DHT22;47555;51.038;6.280;2022-12-29T10:11:09;12.10;67.10
25154;DHT22;47555;51.038;6.280;2022-12-29T10:19:39;12.10;66.50
25154;DHT22;47555;51.038;6.280;2022-12-29T10:24:42;12.40;64.30
25154;DHT22;47555;51.038;6.280;2022-12-29T10:27:12;12.50;65.10
25154;DHT22;47555;51.038;6.280;2022-12-29T10:29:59;12.50;62.30
25154;DHT22;47555;51.038;6.280;2022-12-29T10:32:47;12.50;64.40
25154;DHT22;47555;51.038;6.280;2022-12-29T10:35:21;12.30;64.20
25154;DHT22;47555;51.038;6.280;2022-12-29T10:43:28;12.10;64.90
25154;DHT22;47555;51.038;6.280;2022-12-29T10:46:04;12.10;65.10
25154;DHT22;47555;51.038;6.280;2022-12-29T10:48:33;12.20;65.70
25154;DHT22;47555;51.038;6.280;2022-12-29T10:51:01;12.30;62.40
25154;DHT22;47555;51.038;6.280;2022-12-29T10:56:51;12.30;64.30
25154;DHT22;47555;51.038;6.280;2022-12-29T10:59:22;12.30;63.50
25154;DHT22;47555;51.038;6.280;2022-12-29T11:07:06;12.50;61.70
25154;DHT22;47555;51.038;6.280;2022-12-29T11:09:35;12.40;61.90
25154;DHT22;47555;51.038;6.280;2022-12-29T11:12:28;12.40;62.70
25154;DHT22;47555;51.038;6.280;2022-12-29T11:15:14;12.50;61.40
25154;DHT22;47555;51.038;6.280;2022-12-29T11:17:59;12.40;62.50
25154;DHT22;47555;51.038;6.280;2022-12-29T11:20:29;12.40;63.90
25154;DHT22;47555;51.038;6.280;2022-12-29T11:22:55;12.40;63.10
25154;DHT22;47555;51.038;6.280;2022-12-29T11:25:20;12.30;63.70
25154;DHT22;47555;51.038;6.280;2022-12-29T11:30:25;12.00;64.00
25154;DHT22;47555;51.038;6.280;2022-12-29T11:32:53;11.90;64.00
25154;DHT22;47555;51.038;6.280;2022-12-29T11:37:59;11.80;65.20
25154;DHT22;47555;51.038;6.280;2022-12-29T11:40:25;11.70;65.10
25154;DHT22;47555;51.038;6.280;2022-12-29T11:47:48;11.70;66.70
25154;DHT22;47555;51.038;6.280;2022-12-29T11:50:24;11.70;66.70
25154;DHT22;47555;51.038;6.280;2022-12-29T11:53:44;11.70;65.80
25154;DHT22;47555;51.038;6.280;2022-12-29T11:56:14;11.70;66.50
25154;DHT22;47555;51.038;6.280;2022-12-29T11:58:40;11.70;66.40
25154;DHT22;47555;51.038;6.280;2022-12-29T12:01:15;11.70;67.00
25154;DHT22;47555;51.038;6.280;2022-12-29T12:04:01;11.60;66.00
25154;DHT22;47555;51.038;6.280;2022-12-29T12:06:28;11.60;66.00
25154;DHT22;47555;51.038;6.280;2022-12-29T12:09:23;11.60;63.80
25154;DHT22;47555;51.038;6.280;2022-12-29T12:11:52;11.50;64.00
25154;DHT22;47555;51.038;6.280;2022-12-29T12:14:43;11.50;65.20
25154;DHT22;47555;51.038;6.280;2022-12-29T12:17:40;11.50;66.60
25154;DHT22;47555;51.038;6.280;2022-12-29T12:22:49;11.50;66.60
25154;DHT22;47555;51.038;6.280;2022-12-29T12:25:23;11.40;67.00
25154;DHT22;47555;51.038;6.280;2022-12-29T12:27:56;11.40;66.60
25154;DHT22;47555;51.038;6.280;2022-12-29T12:30:24;11.40;67.60
25154;DHT22;47555;51.038;6.280;2022-12-29T12:44:10;11.40;67.40
25154;DHT22;47555;51.038;6.280;2022-12-29T12:50:10;11.40;68.50
25154;DHT22;47555;51.038;6.280;2022-12-29T13:00:49;11.40;66.60
25154;DHT22;47555;51.038;6.280;2022-12-29T13:03:44;11.40;66.90
25154;DHT22;47555;51.038;6.280;2022-12-29T13:06:16;11.40;68.20
25154;DHT22;47555;51.038;6.280;2022-12-29T13:12:15;11.30;67.60
25154;DHT22;47555;51.038;6.280;2022-12-29T13:17:47;11.30;68.60
25154;DHT22;47555;51.038;6.280;2022-12-29T13:20:38;11.30;67.50
25154;DHT22;47555;51.038;6.280;2022-12-29T13:23:19;11.30;67.40
25154;DHT22;47555;51.038;6.280;2022-12-29T13:26:00;11.30;67.90
25154;DHT22;47555;51.038;6.280;2022-12-29T13:28:54;11.30;68.20
25154;DHT22;47555;51.038;6.280;2022-12-29T13:31:45;11.30;66.80
25154;DHT22;47555;51.038;6.280;2022-12-29T13:36:46;11.30;67.70
25154;DHT22;47555;51.038;6.280;2022-12-29T13:39:25;11.30;69.40
25154;DHT22;47555;51.038;6.280;2022-12-29T13:41:54;11.40;68.20
25154;DHT22;47555;51.038;6.280;2022-12-29T13:44:27;11.30;69.50
25154;DHT22;47555;51.038;6.280;2022-12-29T13:46:56;11.30;68.30
25154;DHT22;47555;51.038;6.280;2022-12-29T13:49:23;11.20;68.30
25154;DHT22;47555;51.038;6.280;2022-12-29T13:52:04;11.20;68.90
25154;DHT22;47555;51.038;6.280;2022-12-29T13:55:07;11.10;70.40
25154;DHT22;47555;51.038;6.280;2022-12-29T14:03:53;11.10;70.70
25154;DHT22;47555;51.038;6.280;2022-12-29T14:06:22;11.00;71.50
25154;DHT22;47555;51.038;6.280;2022-12-29T14:08:52;11.00;70.00
25154;DHT22;47555;51.038;6.280;2022-12-29T14:11:21;11.00;71.00
25154;DHT22;47555;51.038;6.280;2022-12-29T14:13:47;11.00;69.70
25154;DHT22;47555;51.038;6.280;2022-12-29T14:16:28;10.90;70.20
25154;DHT22;47555;51.038;6.280;2022-12-29T14:18:56;10.90;70.50
25154;DHT22;47555;51.038;6.280;2022-12-29T14:21:25;10.90;71.40
25154;DHT22;47555;51.038;6.280;2022-12-29T14:24:26;10.90;71.30
25154;DHT22;47555;51.038;6.280;2022-12-29T14:26:46;10.90;71.20
25154;DHT22;47555;51.038;6.280;2022-12-29T14:31:50;10.90;71.60
25154;DHT22;47555;51.038;6.280;2022-12-29T14:34:27;10.80;71.60
25154;DHT22;47555;51.038;6.280;2022-12-29T14:36:58;10.80;71.10
25154;DHT22;47555;51.038;6.280;2022-12-29T14:39:44;10.90;71.10
25154;DHT22;47555;51.038;6.280;2022-12-29T14:47:40;10.80;70.90
25154;DHT22;47555;51.038;6.280;2022-12-29T14:50:21;10.80;70.30
25154;DHT22;47555;51.038;6.280;2022-12-29T14:52:49;10.80;70.70
25154;DHT22;47555;51.038;6.280;2022-12-29T14:57:47;10.70;71.30
25154;DHT22;47555;51.038;6.280;2022-12-29T15:00:47;10.70;71.50
25154;DHT22;47555;51.038;6.280;2022-12-29T15:08:13;10.60;71.60
25154;DHT22;47555;51.038;6.280;2022-12-29T15:11:03;10.60;72.10
25154;DHT22;47555;51.038;6.280;2022-12-29T15:13:35;10.60;71.80
25154;DHT22;47555;51.038;6.280;2022-12-29T15:16:01;10.60;71.00
25154;DHT22;47555;51.038;6.280;2022-12-29T15:18:29;10.50;70.70
25154;DHT22;47555;51.038;6.280;2022-12-29T15:21:05;10.60;71.00
25154;DHT22;47555;51.038;6.280;2022-12-29T15:23:33;10.50;70.00
25154;DHT22;47555;51.038;6.280;2022-12-29T15:26:07;10.50;70.80
25154;DHT22;47555;51.038;6.280;2022-12-29T15:28:42;10.50;70.50
25154;DHT22;47555;51.038;6.280;2022-12-29T15:31:21;10.50;70.60
25154;DHT22;47555;51.038;6.280;2022-12-29T15:33:51;10.50;71.40
25154;DHT22;47555;51.038;6.280;2022-12-29T15:36:21;10.50;70.50
25154;DHT22;47555;51.038;6.280;2022-12-29T15:38:48;10.40;70.40
25154;DHT22;47555;51.038;6.280;2022-12-29T15:41:36;10.40;70.50
25154;DHT22;47555;51.038;6.280;2022-12-29T15:44:30;10.40;69.90
25154;DHT22;47555;51.038;6.280;2022-12-29T15:47:01;10.40;69.70
25154;DHT22;47555;51.038;6.280;2022-12-29T15:49:26;10.40;69.30
25154;DHT22;47555;51.038;6.280;2022-12-29T15:51:52;10.40;69.80
25154;DHT22;47555;51.038;6.280;2022-12-29T15:54:20;10.30;70.30
25154;DHT22;47555;51.038;6.280;2022-12-29T15:56:47;10.20;70.30
25154;DHT22;47555;51.038;6.280;2022-12-29T16:01:49;10.10;70.90
25154;DHT22;47555;51.038;6.280;2022-12-29T16:04:14;10.10;71.30
25154;DHT22;47555;51.038;6.280;2022-12-29T16:07:00;10.10;71.30
25154;DHT22;47555;51.038;6.280;2022-12-29T16:09:41;10.00;71.50
25154;DHT22;47555;51.038;6.280;2022-12-29T16:12:23;10.00;71.90
25154;DHT22;47555;51.038;6.280;2022-12-29T16:14:54;10.00;71.70
25154;DHT22;47555;51.038;6.280;2022-12-29T16:17:24;10.00;72.20
25154;DHT22;47555;51.038;6.280;2022-12-29T16:20:03;10.00;72.50
25154;DHT22;47555;51.038;6.280;2022-12-29T16:22:36;10.00;73.10
25154;DHT22;47555;51.038;6.280;2022-12-29T16:25:28;10.00;73.50
25154;DHT22;47555;51.038;6.280;2022-12-29T16:27:53;9.90;74.30
25154;DHT22;47555;51.038;6.280;2022-12-29T16:32:54;9.90;75.80
25154;DHT22;47555;51.038;6.280;2022-12-29T16:35:22;9.80;75.60
25154;DHT22;47555;51.038;6.280;2022-12-29T16:38:16;9.90;76.40
25154;DHT22;47555;51.038;6.280;2022-12-29T16:50:42;9.80;77.30
25154;DHT22;47555;51.038;6.280;2022-12-29T16:53:21;9.80;78.10
25154;DHT22;47555;51.038;6.280;2022-12-29T16:55:50;9.90;77.80
25154;DHT22;47555;51.038;6.280;2022-12-29T16:58:24;9.90;78.60
25154;DHT22;47555;51.038;6.280;2022-12-29T17:00:54;9.80;79.00
25154;DHT22;47555;51.038;6.280;2022-12-29T17:03:21;9.80;78.90
25154;DHT22;47555;51.038;6.280;2022-12-29T17:05:46;9.90;79.00
25154;DHT22;47555;51.038;6.280;2022-12-29T17:08:20;9.80;80.20
25154;DHT22;47555;51.038;6.280;2022-12-29T17:10:53;9.80;81.20
25154;DHT22;47555;51.038;6.280;2022-12-29T17:13:38;9.80;82.90
25154;DHT22;47555;51.038;6.280;2022-12-29T17:16:05;9.80;83.00
25154;DHT22;47555;51.038;6.280;2022-12-29T17:18:32;9.70;83.70
25154;DHT22;47555;51.038;6.280;2022-12-29T17:20:58;9.70;84.30
25154;DHT22;47555;51.038;6.280;2022-12-29T17:23:24;9.70;86.40
25154;DHT22;47555;51.038;6.280;2022-12-29T17:25:49;9.60;88.80
25154;DHT22;47555;51.038;6.280;2022-12-29T17:28:23;9.60;92.00
25154;DHT22;47555;51.038;6.280;2022-12-29T17:30:51;9.50;93.00
25154;DHT22;47555;51.038;6.280;2022-12-29T17:33:19;9.40;93.20
25154;DHT22;47555;51.038;6.280;2022-12-29T17:35:45;9.30;94.90
25154;DHT22;47555;51.038;6.280;2022-12-29T17:38:17;9.20;95.70
25154;DHT22;47555;51.038;6.280;2022-12-29T17:40:43;9.20;94.10
25154;DHT22;47555;51.038;6.280;2022-12-29T17:43:10;9.20;93.70
25154;DHT22;47555;51.038;6.280;2022-12-29T17:45:37;9.10;93.30
25154;DHT22;47555;51.038;6.280;2022-12-29T17:48:12;9.00;93.00
25154;DHT22;47555;51.038;6.280;2022-12-29T17:50:38;8.90;93.50
25154;DHT22;47555;51.038;6.280;2022-12-29T17:53:05;8.90;94.00
25154;DHT22;47555;51.038;6.280;2022-12-29T17:55:32;8.80;94.40
25154;DHT22;47555;51.038;6.280;2022-12-29T17:57:58;8.70;94.40
25154;DHT22;47555;51.038;6.280;2022-12-29T18:00:29;8.70;94.50
25154;DHT22;47555;51.038;6.280;2022-12-29T18:02:56;8.60;94.70
25154;DHT22;47555;51.038;6.280;2022-12-29T18:05:28;8.60;94.90
25154;DHT22;47555;51.038;6.280;2022-12-29T18:07:55;8.60;95.10
25154;DHT22;47555;51.038;6.280;2022-12-29T18:10:23;8.60;95.30